臺北終端管制區 - 松西席

METAR RCSS 160730Z 10013KT 9999 FEW015 SCT200 25/21 Q1012 NOSIG RMK A2989=

站台狀態:Offline
最後更新:2021-04-16 15:30:01